sensor_id;sensor_type;location;lat;lon;timestamp;temperature;humidity
71047;SHT31;58703;48.978;8.982;2023-07-28T00:01:30;16.96;99.99
71047;SHT31;58703;48.978;8.982;2023-07-28T00:03:55;16.91;99.99
71047;SHT31;58703;48.978;8.982;2023-07-28T00:06:21;16.72;99.99
71047;SHT31;58703;48.978;8.982;2023-07-28T00:08:46;16.60;99.99
71047;SHT31;58703;48.978;8.982;2023-07-28T00:11:14;16.48;99.99
71047;SHT31;58703;48.978;8.982;2023-07-28T00:13:40;16.46;99.99
71047;SHT31;58703;48.978;8.982;2023-07-28T00:16:06;16.47;99.99
71047;SHT31;58703;48.978;8.982;2023-07-28T00:18:32;16.54;99.99
71047;SHT31;58703;48.978;8.982;2023-07-28T00:20:57;16.53;99.99
71047;SHT31;58703;48.978;8.982;2023-07-28T00:23:23;16.56;99.99
71047;SHT31;58703;48.978;8.982;2023-07-28T00:25:48;16.54;99.99
71047;SHT31;58703;48.978;8.982;2023-07-28T00:28:13;16.48;99.99
71047;SHT31;58703;48.978;8.982;2023-07-28T00:30:39;16.50;99.99
71047;SHT31;58703;48.978;8.982;2023-07-28T00:33:05;16.51;99.99
71047;SHT31;58703;48.978;8.982;2023-07-28T00:35:30;16.56;99.99
71047;SHT31;58703;48.978;8.982;2023-07-28T00:37:56;16.56;99.99
71047;SHT31;58703;48.978;8.982;2023-07-28T00:40:22;16.51;99.99
71047;SHT31;58703;48.978;8.982;2023-07-28T00:42:47;16.53;99.99
71047;SHT31;58703;48.978;8.982;2023-07-28T00:45:14;16.53;99.99
71047;SHT31;58703;48.978;8.982;2023-07-28T00:47:40;16.53;99.99
71047;SHT31;58703;48.978;8.982;2023-07-28T00:50:08;16.54;99.99
71047;SHT31;58703;48.978;8.982;2023-07-28T00:52:35;16.56;99.99
71047;SHT31;58703;48.978;8.982;2023-07-28T00:55:03;16.67;99.99
71047;SHT31;58703;48.978;8.982;2023-07-28T00:57:28;16.72;99.99
71047;SHT31;58703;48.978;8.982;2023-07-28T00:59:53;16.70;99.99
71047;SHT31;58703;48.978;8.982;2023-07-28T01:02:19;16.70;99.99
71047;SHT31;58703;48.978;8.982;2023-07-28T01:04:46;16.68;99.99
71047;SHT31;58703;48.978;8.982;2023-07-28T01:07:37;16.67;99.99
71047;SHT31;58703;48.978;8.982;2023-07-28T01:10:12;16.65;99.99
71047;SHT31;58703;48.978;8.982;2023-07-28T01:12:38;16.64;99.99
71047;SHT31;58703;48.978;8.982;2023-07-28T01:15:04;16.64;99.99
71047;SHT31;58703;48.978;8.982;2023-07-28T01:17:29;16.60;99.99
71047;SHT31;58703;48.978;8.982;2023-07-28T01:19:55;16.64;99.99
71047;SHT31;58703;48.978;8.982;2023-07-28T01:25:11;16.36;99.99
71047;SHT31;58703;48.978;8.982;2023-07-28T01:27:39;16.33;99.99
71047;SHT31;58703;48.978;8.982;2023-07-28T01:30:08;16.36;99.99
71047;SHT31;58703;48.978;8.982;2023-07-28T01:32:35;16.36;99.99
71047;SHT31;58703;48.978;8.982;2023-07-28T01:35:02;16.23;99.99
71047;SHT31;58703;48.978;8.982;2023-07-28T01:37:28;16.19;99.99
71047;SHT31;58703;48.978;8.982;2023-07-28T01:39:54;16.13;99.99
71047;SHT31;58703;48.978;8.982;2023-07-28T01:42:19;16.26;99.99
71047;SHT31;58703;48.978;8.982;2023-07-28T01:44:45;16.41;99.99
71047;SHT31;58703;48.978;8.982;2023-07-28T01:47:10;16.31;99.99
71047;SHT31;58703;48.978;8.982;2023-07-28T01:49:35;16.20;99.99
71047;SHT31;58703;48.978;8.982;2023-07-28T01:52:01;16.19;99.99
71047;SHT31;58703;48.978;8.982;2023-07-28T01:54:26;16.19;99.99
71047;SHT31;58703;48.978;8.982;2023-07-28T01:56:52;16.17;99.99
71047;SHT31;58703;48.978;8.982;2023-07-28T01:59:17;16.02;99.99
71047;SHT31;58703;48.978;8.982;2023-07-28T02:01:43;15.97;99.99
71047;SHT31;58703;48.978;8.982;2023-07-28T02:04:09;15.88;99.99
71047;SHT31;58703;48.978;8.982;2023-07-28T02:06:34;15.89;99.99
71047;SHT31;58703;48.978;8.982;2023-07-28T02:08:59;15.88;99.99
71047;SHT31;58703;48.978;8.982;2023-07-28T02:11:25;15.88;99.99
71047;SHT31;58703;48.978;8.982;2023-07-28T02:13:50;15.90;99.99
71047;SHT31;58703;48.978;8.982;2023-07-28T02:16:15;15.93;99.99
71047;SHT31;58703;48.978;8.982;2023-07-28T02:18:41;15.95;99.99
71047;SHT31;58703;48.978;8.982;2023-07-28T02:21:08;15.96;99.99
71047;SHT31;58703;48.978;8.982;2023-07-28T02:23:33;15.99;99.99
71047;SHT31;58703;48.978;8.982;2023-07-28T02:25:59;15.93;99.99
71047;SHT31;58703;48.978;8.982;2023-07-28T02:28:24;16.00;99.99
71047;SHT31;58703;48.978;8.982;2023-07-28T02:30:51;15.99;99.99
71047;SHT31;58703;48.978;8.982;2023-07-28T02:33:16;15.93;99.99
71047;SHT31;58703;48.978;8.982;2023-07-28T02:35:41;15.97;99.99
71047;SHT31;58703;48.978;8.982;2023-07-28T02:38:07;16.07;99.99
71047;SHT31;58703;48.978;8.982;2023-07-28T02:40:33;16.00;99.99
71047;SHT31;58703;48.978;8.982;2023-07-28T02:42:59;15.90;99.99
71047;SHT31;58703;48.978;8.982;2023-07-28T02:45:24;15.88;99.99
71047;SHT31;58703;48.978;8.982;2023-07-28T02:47:50;15.86;99.99
71047;SHT31;58703;48.978;8.982;2023-07-28T02:50:15;15.88;99.99
71047;SHT31;58703;48.978;8.982;2023-07-28T02:52:42;15.89;99.99
71047;SHT31;58703;48.978;8.982;2023-07-28T02:55:08;15.89;99.99
71047;SHT31;58703;48.978;8.982;2023-07-28T02:57:33;15.92;99.99
71047;SHT31;58703;48.978;8.982;2023-07-28T02:59:58;15.96;99.99
71047;SHT31;58703;48.978;8.982;2023-07-28T03:02:24;15.97;99.99
71047;SHT31;58703;48.978;8.982;2023-07-28T03:04:49;15.97;99.99
71047;SHT31;58703;48.978;8.982;2023-07-28T03:07:15;16.03;99.99
71047;SHT31;58703;48.978;8.982;2023-07-28T03:09:40;16.06;99.99
71047;SHT31;58703;48.978;8.982;2023-07-28T03:12:06;16.09;99.99
71047;SHT31;58703;48.978;8.982;2023-07-28T03:14:32;16.12;99.99
71047;SHT31;58703;48.978;8.982;2023-07-28T03:16:57;16.10;99.99
71047;SHT31;58703;48.978;8.982;2023-07-28T03:19:24;16.13;99.99
71047;SHT31;58703;48.978;8.982;2023-07-28T03:21:49;16.12;99.99
71047;SHT31;58703;48.978;8.982;2023-07-28T03:24:15;16.12;99.99
71047;SHT31;58703;48.978;8.982;2023-07-28T03:26:40;16.16;99.99
71047;SHT31;58703;48.978;8.982;2023-07-28T03:29:06;16.12;99.99
71047;SHT31;58703;48.978;8.982;2023-07-28T03:31:31;16.12;99.99
71047;SHT31;58703;48.978;8.982;2023-07-28T03:34:01;16.09;99.99
71047;SHT31;58703;48.978;8.982;2023-07-28T03:36:26;16.12;99.99
71047;SHT31;58703;48.978;8.982;2023-07-28T03:38:51;16.09;99.99
71047;SHT31;58703;48.978;8.982;2023-07-28T03:41:16;16.14;99.99
71047;SHT31;58703;48.978;8.982;2023-07-28T03:43:42;16.14;99.99
71047;SHT31;58703;48.978;8.982;2023-07-28T03:46:07;16.21;99.99
71047;SHT31;58703;48.978;8.982;2023-07-28T03:48:33;16.20;99.99
71047;SHT31;58703;48.978;8.982;2023-07-28T03:50:58;16.19;99.99
71047;SHT31;58703;48.978;8.982;2023-07-28T03:53:23;16.20;99.99
71047;SHT31;58703;48.978;8.982;2023-07-28T03:55:50;16.23;99.99
71047;SHT31;58703;48.978;8.982;2023-07-28T03:58:15;16.30;99.99
71047;SHT31;58703;48.978;8.982;2023-07-28T04:00:41;16.36;99.99
71047;SHT31;58703;48.978;8.982;2023-07-28T04:03:06;16.36;99.99
71047;SHT31;58703;48.978;8.982;2023-07-28T04:05:31;16.36;99.99
71047;SHT31;58703;48.978;8.982;2023-07-28T04:07:57;16.33;99.99
71047;SHT31;58703;48.978;8.982;2023-07-28T04:10:22;16.39;99.99
71047;SHT31;58703;48.978;8.982;2023-07-28T04:12:48;16.39;99.99
71047;SHT31;58703;48.978;8.982;2023-07-28T04:15:13;16.41;99.99
71047;SHT31;58703;48.978;8.982;2023-07-28T04:17:39;16.46;99.99
71047;SHT31;58703;48.978;8.982;2023-07-28T04:20:06;16.47;99.99
71047;SHT31;58703;48.978;8.982;2023-07-28T04:22:31;16.47;99.99
71047;SHT31;58703;48.978;8.982;2023-07-28T04:24:56;16.51;99.99
71047;SHT31;58703;48.978;8.982;2023-07-28T04:27:22;16.53;99.99
71047;SHT31;58703;48.978;8.982;2023-07-28T04:29:47;16.54;99.99
71047;SHT31;58703;48.978;8.982;2023-07-28T04:32:12;16.51;99.99
71047;SHT31;58703;48.978;8.982;2023-07-28T04:34:38;16.57;99.99
71047;SHT31;58703;48.978;8.982;2023-07-28T04:37:03;16.51;99.99
71047;SHT31;58703;48.978;8.982;2023-07-28T04:39:29;16.56;99.99
71047;SHT31;58703;48.978;8.982;2023-07-28T04:41:54;16.50;99.99
71047;SHT31;58703;48.978;8.982;2023-07-28T04:44:20;16.44;99.99
71047;SHT31;58703;48.978;8.982;2023-07-28T04:46:45;16.41;99.99
71047;SHT31;58703;48.978;8.982;2023-07-28T04:49:13;16.50;99.99
71047;SHT31;58703;48.978;8.982;2023-07-28T04:51:38;16.56;99.99
71047;SHT31;58703;48.978;8.982;2023-07-28T04:54:03;16.64;99.99
71047;SHT31;58703;48.978;8.982;2023-07-28T04:56:30;16.54;99.99
71047;SHT31;58703;48.978;8.982;2023-07-28T04:58:55;16.48;99.99
71047;SHT31;58703;48.978;8.982;2023-07-28T05:01:21;16.47;99.99
71047;SHT31;58703;48.978;8.982;2023-07-28T05:03:46;16.47;99.99
71047;SHT31;58703;48.978;8.982;2023-07-28T05:06:12;16.61;99.99
71047;SHT31;58703;48.978;8.982;2023-07-28T05:08:38;16.54;99.99
71047;SHT31;58703;48.978;8.982;2023-07-28T05:11:03;16.50;99.99
71047;SHT31;58703;48.978;8.982;2023-07-28T05:13:28;16.60;99.99
71047;SHT31;58703;48.978;8.982;2023-07-28T05:15:54;16.65;99.99
71047;SHT31;58703;48.978;8.982;2023-07-28T05:18:20;16.70;99.99
71047;SHT31;58703;48.978;8.982;2023-07-28T05:20:45;16.89;99.99
71047;SHT31;58703;48.978;8.982;2023-07-28T05:23:12;16.92;99.99
71047;SHT31;58703;48.978;8.982;2023-07-28T05:25:37;17.09;99.78
71047;SHT31;58703;48.978;8.982;2023-07-28T05:28:03;17.38;98.76
71047;SHT31;58703;48.978;8.982;2023-07-28T05:30:28;17.50;97.33
71047;SHT31;58703;48.978;8.982;2023-07-28T05:32:54;17.63;96.76
71047;SHT31;58703;48.978;8.982;2023-07-28T05:35:19;17.59;97.56
71047;SHT31;58703;48.978;8.982;2023-07-28T05:37:46;17.66;96.90
71047;SHT31;58703;48.978;8.982;2023-07-28T05:40:12;17.66;96.62
71047;SHT31;58703;48.978;8.982;2023-07-28T05:42:37;17.66;97.12
71047;SHT31;58703;48.978;8.982;2023-07-28T05:45:03;17.67;96.70
71047;SHT31;58703;48.978;8.982;2023-07-28T05:47:29;17.65;96.79
71047;SHT31;58703;48.978;8.982;2023-07-28T05:49:54;17.59;97.16
71047;SHT31;58703;48.978;8.982;2023-07-28T05:52:19;17.66;96.92
71047;SHT31;58703;48.978;8.982;2023-07-28T05:54:45;17.59;97.29
71047;SHT31;58703;48.978;8.982;2023-07-28T05:57:10;17.49;98.12
71047;SHT31;58703;48.978;8.982;2023-07-28T05:59:36;17.42;98.11
71047;SHT31;58703;48.978;8.982;2023-07-28T06:02:02;17.28;99.32
71047;SHT31;58703;48.978;8.982;2023-07-28T06:04:28;17.21;99.64
71047;SHT31;58703;48.978;8.982;2023-07-28T06:06:53;17.15;99.82
71047;SHT31;58703;48.978;8.982;2023-07-28T06:09:18;17.08;99.99
71047;SHT31;58703;48.978;8.982;2023-07-28T06:11:44;17.09;99.99
71047;SHT31;58703;48.978;8.982;2023-07-28T06:14:09;17.08;99.99
71047;SHT31;58703;48.978;8.982;2023-07-28T06:16:35;17.23;99.99
71047;SHT31;58703;48.978;8.982;2023-07-28T06:19:00;17.25;99.97
71047;SHT31;58703;48.978;8.982;2023-07-28T06:21:25;17.26;99.99
71047;SHT31;58703;48.978;8.982;2023-07-28T06:23:51;17.26;99.99
71047;SHT31;58703;48.978;8.982;2023-07-28T06:26:16;17.32;99.99
71047;SHT31;58703;48.978;8.982;2023-07-28T06:28:41;17.32;99.99
71047;SHT31;58703;48.978;8.982;2023-07-28T06:31:07;17.35;99.98
71047;SHT31;58703;48.978;8.982;2023-07-28T06:33:33;17.35;99.99
71047;SHT31;58703;48.978;8.982;2023-07-28T06:35:59;17.35;99.99
71047;SHT31;58703;48.978;8.982;2023-07-28T06:38:24;17.35;99.99
71047;SHT31;58703;48.978;8.982;2023-07-28T06:40:50;17.35;99.99
71047;SHT31;58703;48.978;8.982;2023-07-28T06:43:15;17.32;99.99
71047;SHT31;58703;48.978;8.982;2023-07-28T06:45:41;17.43;99.99
71047;SHT31;58703;48.978;8.982;2023-07-28T06:48:06;17.50;99.99
71047;SHT31;58703;48.978;8.982;2023-07-28T06:50:31;17.47;99.99
71047;SHT31;58703;48.978;8.982;2023-07-28T06:52:57;17.50;99.99
71047;SHT31;58703;48.978;8.982;2023-07-28T06:55:23;17.59;99.99
71047;SHT31;58703;48.978;8.982;2023-07-28T06:57:48;17.69;99.99
71047;SHT31;58703;48.978;8.982;2023-07-28T07:00:15;17.83;99.94
71047;SHT31;58703;48.978;8.982;2023-07-28T07:02:40;17.89;98.61
71047;SHT31;58703;48.978;8.982;2023-07-28T07:05:06;17.91;98.29
71047;SHT31;58703;48.978;8.982;2023-07-28T07:07:32;17.83;98.63
71047;SHT31;58703;48.978;8.982;2023-07-28T07:09:58;17.80;98.81
71047;SHT31;58703;48.978;8.982;2023-07-28T07:12:23;17.72;99.67
71047;SHT31;58703;48.978;8.982;2023-07-28T07:14:48;17.62;99.25
71047;SHT31;58703;48.978;8.982;2023-07-28T07:17:14;17.65;99.99
71047;SHT31;58703;48.978;8.982;2023-07-28T07:19:39;17.65;99.65
71047;SHT31;58703;48.978;8.982;2023-07-28T07:22:05;17.87;99.99
71047;SHT31;58703;48.978;8.982;2023-07-28T07:24:31;18.01;99.71
71047;SHT31;58703;48.978;8.982;2023-07-28T07:26:56;18.27;99.50
71047;SHT31;58703;48.978;8.982;2023-07-28T07:29:22;18.47;99.58
71047;SHT31;58703;48.978;8.982;2023-07-28T07:31:47;18.34;98.95
71047;SHT31;58703;48.978;8.982;2023-07-28T07:34:13;18.49;98.88
71047;SHT31;58703;48.978;8.982;2023-07-28T07:36:38;18.64;99.34
71047;SHT31;58703;48.978;8.982;2023-07-28T07:39:05;18.28;96.54
71047;SHT31;58703;48.978;8.982;2023-07-28T07:41:30;18.33;97.35
71047;SHT31;58703;48.978;8.982;2023-07-28T07:43:56;18.34;97.34
71047;SHT31;58703;48.978;8.982;2023-07-28T07:46:21;18.43;97.66
71047;SHT31;58703;48.978;8.982;2023-07-28T07:48:46;18.34;96.54
71047;SHT31;58703;48.978;8.982;2023-07-28T07:51:12;18.37;96.51
71047;SHT31;58703;48.978;8.982;2023-07-28T07:53:37;18.34;96.51
71047;SHT31;58703;48.978;8.982;2023-07-28T07:56:04;18.30;96.17
71047;SHT31;58703;48.978;8.982;2023-07-28T07:58:31;18.28;95.33
71047;SHT31;58703;48.978;8.982;2023-07-28T08:00:56;18.25;95.59
71047;SHT31;58703;48.978;8.982;2023-07-28T08:03:22;18.33;95.89
71047;SHT31;58703;48.978;8.982;2023-07-28T08:05:47;18.35;94.72
71047;SHT31;58703;48.978;8.982;2023-07-28T08:08:14;18.47;95.22
71047;SHT31;58703;48.978;8.982;2023-07-28T08:10:42;18.49;95.44
71047;SHT31;58703;48.978;8.982;2023-07-28T08:13:08;18.64;95.25
71047;SHT31;58703;48.978;8.982;2023-07-28T08:15:34;18.86;94.30
71047;SHT31;58703;48.978;8.982;2023-07-28T08:18:00;19.07;93.78
71047;SHT31;58703;48.978;8.982;2023-07-28T08:20:25;19.30;94.11
71047;SHT31;58703;48.978;8.982;2023-07-28T08:22:51;19.34;94.36
71047;SHT31;58703;48.978;8.982;2023-07-28T08:25:17;19.27;93.38
71047;SHT31;58703;48.978;8.982;2023-07-28T08:27:43;19.71;92.97
71047;SHT31;58703;48.978;8.982;2023-07-28T08:30:10;19.64;92.39
71047;SHT31;58703;48.978;8.982;2023-07-28T08:32:36;19.43;93.07
71047;SHT31;58703;48.978;8.982;2023-07-28T08:35:02;19.60;92.68
71047;SHT31;58703;48.978;8.982;2023-07-28T08:37:28;19.50;91.65
71047;SHT31;58703;48.978;8.982;2023-07-28T08:39:54;19.60;92.30
71047;SHT31;58703;48.978;8.982;2023-07-28T08:42:21;19.82;92.22
71047;SHT31;58703;48.978;8.982;2023-07-28T08:44:48;19.90;92.03
71047;SHT31;58703;48.978;8.982;2023-07-28T08:47:14;19.98;91.88
71047;SHT31;58703;48.978;8.982;2023-07-28T08:49:39;20.19;91.40
71047;SHT31;58703;48.978;8.982;2023-07-28T08:52:06;20.26;89.75
71047;SHT31;58703;48.978;8.982;2023-07-28T08:54:32;20.31;89.89
71047;SHT31;58703;48.978;8.982;2023-07-28T08:56:58;20.02;89.95
71047;SHT31;58703;48.978;8.982;2023-07-28T08:59:28;20.11;88.83
71047;SHT31;58703;48.978;8.982;2023-07-28T09:01:55;20.42;89.99
71047;SHT31;58703;48.978;8.982;2023-07-28T09:04:22;20.38;87.92
71047;SHT31;58703;48.978;8.982;2023-07-28T09:06:48;20.35;88.69
71047;SHT31;58703;48.978;8.982;2023-07-28T09:09:15;20.42;89.05
71047;SHT31;58703;48.978;8.982;2023-07-28T09:11:50;20.61;87.73
71047;SHT31;58703;48.978;8.982;2023-07-28T09:14:17;20.68;88.35
71047;SHT31;58703;48.978;8.982;2023-07-28T09:16:43;21.34;87.62
71047;SHT31;58703;48.978;8.982;2023-07-28T09:19:10;21.64;87.10
71047;SHT31;58703;48.978;8.982;2023-07-28T09:21:38;21.84;83.84
71047;SHT31;58703;48.978;8.982;2023-07-28T09:24:06;21.59;84.96
71047;SHT31;58703;48.978;8.982;2023-07-28T09:29:16;20.94;85.59
71047;SHT31;58703;48.978;8.982;2023-07-28T09:31:43;21.26;86.08
71047;SHT31;58703;48.978;8.982;2023-07-28T09:34:09;21.15;86.28
71047;SHT31;58703;48.978;8.982;2023-07-28T09:36:36;22.06;84.95
71047;SHT31;58703;48.978;8.982;2023-07-28T09:39:07;22.71;81.61
71047;SHT31;58703;48.978;8.982;2023-07-28T09:41:36;22.37;81.65
71047;SHT31;58703;48.978;8.982;2023-07-28T09:44:05;23.20;80.60
71047;SHT31;58703;48.978;8.982;2023-07-28T09:46:35;22.39;81.20
71047;SHT31;58703;48.978;8.982;2023-07-28T09:49:05;22.70;81.83
71047;SHT31;58703;48.978;8.982;2023-07-28T09:51:34;22.28;83.32
71047;SHT31;58703;48.978;8.982;2023-07-28T09:54:05;22.49;84.35
71047;SHT31;58703;48.978;8.982;2023-07-28T09:56:32;22.20;82.61
71047;SHT31;58703;48.978;8.982;2023-07-28T09:58:59;21.96;83.51
71047;SHT31;58703;48.978;8.982;2023-07-28T10:01:26;21.92;83.78
71047;SHT31;58703;48.978;8.982;2023-07-28T10:03:54;22.23;82.47
71047;SHT31;58703;48.978;8.982;2023-07-28T10:06:20;22.36;82.69
71047;SHT31;58703;48.978;8.982;2023-07-28T10:08:49;22.05;81.18
71047;SHT31;58703;48.978;8.982;2023-07-28T10:11:16;22.25;81.93
71047;SHT31;58703;48.978;8.982;2023-07-28T10:13:44;22.12;82.24
71047;SHT31;58703;48.978;8.982;2023-07-28T10:16:10;21.69;82.29
71047;SHT31;58703;48.978;8.982;2023-07-28T10:18:37;21.40;83.67
71047;SHT31;58703;48.978;8.982;2023-07-28T10:21:09;21.57;84.82
71047;SHT31;58703;48.978;8.982;2023-07-28T10:23:39;21.22;83.55
71047;SHT31;58703;48.978;8.982;2023-07-28T10:26:05;21.27;85.85
71047;SHT31;58703;48.978;8.982;2023-07-28T10:28:35;21.47;84.26
71047;SHT31;58703;48.978;8.982;2023-07-28T10:31:05;21.58;82.44
71047;SHT31;58703;48.978;8.982;2023-07-28T10:33:32;22.02;83.18
71047;SHT31;58703;48.978;8.982;2023-07-28T10:35:59;22.02;82.02
71047;SHT31;58703;48.978;8.982;2023-07-28T10:38:34;21.91;81.63
71047;SHT31;58703;48.978;8.982;2023-07-28T10:41:10;21.41;82.78
71047;SHT31;58703;48.978;8.982;2023-07-28T10:43:37;21.23;83.43
71047;SHT31;58703;48.978;8.982;2023-07-28T10:46:05;21.47;83.39
71047;SHT31;58703;48.978;8.982;2023-07-28T10:48:31;21.58;82.93
71047;SHT31;58703;48.978;8.982;2023-07-28T10:50:58;21.37;82.86
71047;SHT31;58703;48.978;8.982;2023-07-28T10:53:24;21.54;82.67
71047;SHT31;58703;48.978;8.982;2023-07-28T10:55:50;21.61;82.04
71047;SHT31;58703;48.978;8.982;2023-07-28T10:58:16;21.57;83.37
71047;SHT31;58703;48.978;8.982;2023-07-28T11:00:42;21.53;83.77
71047;SHT31;58703;48.978;8.982;2023-07-28T11:03:08;21.08;82.97
71047;SHT31;58703;48.978;8.982;2023-07-28T11:05:34;21.00;83.15
71047;SHT31;58703;48.978;8.982;2023-07-28T11:08:01;21.15;83.84
71047;SHT31;58703;48.978;8.982;2023-07-28T11:10:31;21.34;83.86
71047;SHT31;58703;48.978;8.982;2023-07-28T11:13:03;21.58;83.44
71047;SHT31;58703;48.978;8.982;2023-07-28T11:15:29;21.35;84.40
71047;SHT31;58703;48.978;8.982;2023-07-28T11:17:55;21.30;83.92
71047;SHT31;58703;48.978;8.982;2023-07-28T11:20:22;21.44;82.92
71047;SHT31;58703;48.978;8.982;2023-07-28T11:22:57;21.74;83.05
71047;SHT31;58703;48.978;8.982;2023-07-28T11:25:24;21.79;82.55
71047;SHT31;58703;48.978;8.982;2023-07-28T11:27:51;22.02;82.12
71047;SHT31;58703;48.978;8.982;2023-07-28T11:30:18;22.32;81.48
71047;SHT31;58703;48.978;8.982;2023-07-28T11:32:49;22.28;80.93
71047;SHT31;58703;48.978;8.982;2023-07-28T11:35:18;22.59;80.55
71047;SHT31;58703;48.978;8.982;2023-07-28T11:37:46;22.81;79.95
71047;SHT31;58703;48.978;8.982;2023-07-28T11:40:14;22.60;79.87
71047;SHT31;58703;48.978;8.982;2023-07-28T11:42:44;22.60;79.40
71047;SHT31;58703;48.978;8.982;2023-07-28T11:45:12;22.77;81.31
71047;SHT31;58703;48.978;8.982;2023-07-28T11:47:39;22.49;79.80
71047;SHT31;58703;48.978;8.982;2023-07-28T11:50:05;21.95;80.01
71047;SHT31;58703;48.978;8.982;2023-07-28T11:52:32;21.85;80.99
71047;SHT31;58703;48.978;8.982;2023-07-28T11:54:59;21.95;80.29
71047;SHT31;58703;48.978;8.982;2023-07-28T11:57:26;22.30;80.47
71047;SHT31;58703;48.978;8.982;2023-07-28T11:59:54;22.42;79.56
71047;SHT31;58703;48.978;8.982;2023-07-28T12:02:27;22.52;78.74
71047;SHT31;58703;48.978;8.982;2023-07-28T12:04:54;22.90;78.19
71047;SHT31;58703;48.978;8.982;2023-07-28T12:07:31;23.00;77.33
71047;SHT31;58703;48.978;8.982;2023-07-28T12:10:05;23.27;78.02
71047;SHT31;58703;48.978;8.982;2023-07-28T12:12:45;23.49;76.91
71047;SHT31;58703;48.978;8.982;2023-07-28T12:15:22;22.93;78.52
71047;SHT31;58703;48.978;8.982;2023-07-28T12:20:36;21.44;83.66
71047;SHT31;58703;48.978;8.982;2023-07-28T12:23:03;20.99;85.68
71047;SHT31;58703;48.978;8.982;2023-07-28T12:25:30;20.90;87.75
71047;SHT31;58703;48.978;8.982;2023-07-28T12:27:56;20.97;87.86
71047;SHT31;58703;48.978;8.982;2023-07-28T12:30:21;21.00;86.48
71047;SHT31;58703;48.978;8.982;2023-07-28T12:32:47;20.92;87.87
71047;SHT31;58703;48.978;8.982;2023-07-28T12:35:13;20.93;89.16
71047;SHT31;58703;48.978;8.982;2023-07-28T12:37:39;20.52;88.87
71047;SHT31;58703;48.978;8.982;2023-07-28T12:40:06;20.22;91.99
71047;SHT31;58703;48.978;8.982;2023-07-28T12:42:32;20.01;92.80
71047;SHT31;58703;48.978;8.982;2023-07-28T12:45:00;19.92;93.22
71047;SHT31;58703;48.978;8.982;2023-07-28T12:47:26;19.73;93.11
71047;SHT31;58703;48.978;8.982;2023-07-28T12:50:00;19.71;94.60
71047;SHT31;58703;48.978;8.982;2023-07-28T12:52:29;19.58;95.27
71047;SHT31;58703;48.978;8.982;2023-07-28T12:54:55;19.45;95.71
71047;SHT31;58703;48.978;8.982;2023-07-28T12:57:20;19.41;95.03
71047;SHT31;58703;48.978;8.982;2023-07-28T12:59:46;19.64;96.95
71047;SHT31;58703;48.978;8.982;2023-07-28T13:02:13;19.68;95.11
71047;SHT31;58703;48.978;8.982;2023-07-28T13:04:39;19.82;96.02
71047;SHT31;58703;48.978;8.982;2023-07-28T13:07:06;19.80;94.11
71047;SHT31;58703;48.978;8.982;2023-07-28T13:09:32;19.84;95.22
71047;SHT31;58703;48.978;8.982;2023-07-28T13:11:58;19.56;94.36
71047;SHT31;58703;48.978;8.982;2023-07-28T13:14:25;19.53;94.95
71047;SHT31;58703;48.978;8.982;2023-07-28T13:16:52;19.46;94.88
71047;SHT31;58703;48.978;8.982;2023-07-28T13:19:18;19.49;97.19
71047;SHT31;58703;48.978;8.982;2023-07-28T13:21:44;19.49;96.83
71047;SHT31;58703;48.978;8.982;2023-07-28T13:24:12;19.34;95.49
71047;SHT31;58703;48.978;8.982;2023-07-28T13:26:37;19.39;95.88
71047;SHT31;58703;48.978;8.982;2023-07-28T13:29:04;19.39;96.60
71047;SHT31;58703;48.978;8.982;2023-07-28T13:31:33;19.34;96.14
71047;SHT31;58703;48.978;8.982;2023-07-28T13:33:59;19.36;97.25
71047;SHT31;58703;48.978;8.982;2023-07-28T13:36:27;19.30;96.66
71047;SHT31;58703;48.978;8.982;2023-07-28T13:38:53;19.26;96.83
71047;SHT31;58703;48.978;8.982;2023-07-28T13:41:20;19.33;98.20
71047;SHT31;58703;48.978;8.982;2023-07-28T13:43:46;19.33;98.76
71047;SHT31;58703;48.978;8.982;2023-07-28T13:46:19;19.29;98.33
71047;SHT31;58703;48.978;8.982;2023-07-28T13:48:45;19.31;98.50
71047;SHT31;58703;48.978;8.982;2023-07-28T13:51:11;19.41;98.97
71047;SHT31;58703;48.978;8.982;2023-07-28T13:53:37;19.39;98.99
71047;SHT31;58703;48.978;8.982;2023-07-28T13:56:03;19.49;99.94
71047;SHT31;58703;48.978;8.982;2023-07-28T13:58:31;19.47;98.95
71047;SHT31;58703;48.978;8.982;2023-07-28T14:00:58;19.41;98.98
71047;SHT31;58703;48.978;8.982;2023-07-28T14:03:24;19.43;99.05
71047;SHT31;58703;48.978;8.982;2023-07-28T14:05:50;19.47;99.21
71047;SHT31;58703;48.978;8.982;2023-07-28T14:08:16;19.46;99.56
71047;SHT31;58703;48.978;8.982;2023-07-28T14:10:44;19.45;98.95
71047;SHT31;58703;48.978;8.982;2023-07-28T14:13:11;19.45;99.49
71047;SHT31;58703;48.978;8.982;2023-07-28T14:15:38;19.49;99.99
71047;SHT31;58703;48.978;8.982;2023-07-28T14:18:04;19.47;99.20
71047;SHT31;58703;48.978;8.982;2023-07-28T14:20:30;19.43;98.84
71047;SHT31;58703;48.978;8.982;2023-07-28T14:22:59;19.40;99.29
71047;SHT31;58703;48.978;8.982;2023-07-28T14:25:29;19.41;99.02
71047;SHT31;58703;48.978;8.982;2023-07-28T14:27:55;19.22;98.39
71047;SHT31;58703;48.978;8.982;2023-07-28T14:30:21;19.29;99.06
71047;SHT31;58703;48.978;8.982;2023-07-28T14:32:47;19.24;98.26
71047;SHT31;58703;48.978;8.982;2023-07-28T14:35:14;19.31;98.22
71047;SHT31;58703;48.978;8.982;2023-07-28T14:37:46;19.49;97.84
71047;SHT31;58703;48.978;8.982;2023-07-28T14:40:17;19.53;96.87
71047;SHT31;58703;48.978;8.982;2023-07-28T14:42:44;19.56;97.10
71047;SHT31;58703;48.978;8.982;2023-07-28T14:45:12;19.51;95.15
71047;SHT31;58703;48.978;8.982;2023-07-28T14:47:38;19.58;95.89
71047;SHT31;58703;48.978;8.982;2023-07-28T14:50:03;19.66;96.19
71047;SHT31;58703;48.978;8.982;2023-07-28T14:52:36;19.80;96.18
71047;SHT31;58703;48.978;8.982;2023-07-28T14:55:04;19.61;94.79
71047;SHT31;58703;48.978;8.982;2023-07-28T14:57:32;19.71;94.94
71047;SHT31;58703;48.978;8.982;2023-07-28T14:59:58;19.84;95.18
71047;SHT31;58703;48.978;8.982;2023-07-28T15:02:24;19.94;95.91
71047;SHT31;58703;48.978;8.982;2023-07-28T15:04:54;19.97;96.89
71047;SHT31;58703;48.978;8.982;2023-07-28T15:07:20;19.98;96.44
71047;SHT31;58703;48.978;8.982;2023-07-28T15:09:48;20.01;94.72
71047;SHT31;58703;48.978;8.982;2023-07-28T15:12:15;20.00;95.12
71047;SHT31;58703;48.978;8.982;2023-07-28T15:14:41;19.85;95.10
71047;SHT31;58703;48.978;8.982;2023-07-28T15:17:07;20.01;94.72
71047;SHT31;58703;48.978;8.982;2023-07-28T15:19:33;19.87;94.70
71047;SHT31;58703;48.978;8.982;2023-07-28T15:21:59;19.82;95.39
71047;SHT31;58703;48.978;8.982;2023-07-28T15:24:25;19.84;96.61
71047;SHT31;58703;48.978;8.982;2023-07-28T15:26:52;19.75;96.54
71047;SHT31;58703;48.978;8.982;2023-07-28T15:29:19;19.74;97.92
71047;SHT31;58703;48.978;8.982;2023-07-28T15:31:45;19.58;98.07
71047;SHT31;58703;48.978;8.982;2023-07-28T15:34:11;19.34;99.26